Time;durP1;ratioP1;P1;durP2;ratioP2;P2;SDS_P1;SDS_P2;PMS_P1;PMS_P2;Temp;Humidity;BMP_temperature;BMP_pressure;BME280_temperature;BME280_humidity;BME280_pressure;Samples;Min_cycle;Max_cycle;Signal;HPM_P1;HPM_P2
2021/10/23 00:01:58;;;;;;;20.48;9.60;;;;;;;8.08;66.77;99763.36;1709582;83;21070;-75
2021/10/23 00:04:25;;;;;;;24.23;9.88;;;;;;;8.22;65.49;99765.98;1710828;83;21595;-74
2021/10/23 00:06:52;;;;;;;21.93;9.18;;;;;;;8.36;66.42;99762.45;1711202;82;21077;-73
2021/10/23 00:09:18;;;;;;;24.65;9.25;;;;;;;8.45;64.12;99759.53;1709798;83;21138;-75
2021/10/23 00:11:46;;;;;;;19.92;8.70;;;;;;;8.54;63.26;99756.59;1696276;82;21073;-74
2021/10/23 00:14:13;;;;;;;13.22;6.87;;;;;;;8.65;61.94;99756.66;1710656;82;21178;-75
2021/10/23 00:16:41;;;;;;;18.30;7.55;;;;;;;8.76;56.76;99755.83;1708082;83;22071;-75
2021/10/23 00:19:08;;;;;;;16.35;7.72;;;;;;;8.87;56.49;99752.38;1710506;83;21077;-73
2021/10/23 00:21:34;;;;;;;17.25;7.95;;;;;;;8.97;55.93;99752.45;1710561;82;21120;-75
2021/10/23 00:24:01;;;;;;;19.40;7.10;;;;;;;9.06;54.66;99753.02;1709889;83;21575;-78
2021/10/23 00:26:29;;;;;;;17.98;7.00;;;;;;;9.13;54.77;99757.13;1711526;83;22015;-80
2021/10/23 00:28:55;;;;;;;19.55;7.47;;;;;;;9.18;55.16;99745.55;1710658;83;21085;-79
2021/10/23 00:31:22;;;;;;;17.30;6.80;;;;;;;9.22;54.46;99743.65;1709740;83;21116;-78
2021/10/23 00:33:48;;;;;;;13.40;6.10;;;;;;;9.25;54.07;99738.30;1709888;83;21592;-81
2021/10/23 00:36:15;;;;;;;12.20;5.00;;;;;;;9.29;53.51;99745.12;1710739;82;21062;-79
2021/10/23 00:38:41;;;;;;;13.43;5.92;;;;;;;9.31;54.60;99741.98;1708742;83;21025;-79
2021/10/23 00:41:09;;;;;;;11.78;5.33;;;;;;;9.32;54.83;99739.77;1707485;82;21117;-78
2021/10/23 00:43:38;;;;;;;17.67;6.42;;;;;;;9.32;54.25;99739.77;1708893;83;21057;-78
2021/10/23 00:46:04;;;;;;;12.85;4.75;;;;;;;9.32;55.79;99739.77;1712472;83;21112;-79
2021/10/23 00:48:33;;;;;;;13.13;5.55;;;;;;;9.29;57.09;99741.65;1711084;82;21085;-78
2021/10/23 00:50:59;;;;;;;11.28;4.83;;;;;;;9.24;57.39;99740.05;1711307;83;21081;-76
2021/10/23 00:53:27;;;;;;;12.50;5.00;;;;;;;9.20;54.30;99732.34;1712564;83;21074;-77
2021/10/23 00:55:54;;;;;;;15.30;4.78;;;;;;;9.18;52.92;99740.77;1712326;81;20998;-76
2021/10/23 00:58:21;;;;;;;13.65;4.75;;;;;;;9.14;54.47;99735.22;1711417;83;21212;-78
2021/10/23 01:00:47;;;;;;;8.85;4.85;;;;;;;9.09;52.09;99739.76;1709705;83;21149;-76
2021/10/23 01:03:14;;;;;;;8.73;4.78;;;;;;;8.87;52.40;99710.82;1706917;83;21403;-77
2021/10/23 01:05:42;;;;;;;15.32;5.58;;;;;;;9.00;53.77;99739.20;1707293;82;21481;-77
2021/10/23 01:08:11;;;;;;;14.95;5.33;;;;;;;8.93;52.17;99740.80;1716760;83;21011;-77
2021/10/23 01:10:38;;;;;;;11.43;4.85;;;;;;;8.85;51.34;99741.06;1693983;83;21139;-76
2021/10/23 01:13:04;;;;;;;11.15;5.65;;;;;;;8.79;50.89;99750.03;1717281;82;22309;-76
2021/10/23 01:15:33;;;;;;;11.63;4.90;;;;;;;8.74;52.29;99747.16;1717314;82;21030;-75
2021/10/23 01:18:02;;;;;;;10.48;5.58;;;;;;;8.68;53.03;99738.20;1716970;83;21121;-76
2021/10/23 01:20:29;;;;;;;13.38;4.60;;;;;;;8.61;51.85;99742.34;1717001;83;21069;-77
2021/10/23 01:22:56;;;;;;;11.45;5.05;;;;;;;8.59;52.92;99745.94;1717214;82;21516;-75
2021/10/23 01:25:26;;;;;;;13.32;5.28;;;;;;;8.54;54.65;99742.16;1717617;83;21069;-75
2021/10/23 01:27:54;;;;;;;7.78;4.17;;;;;;;8.49;55.32;99741.47;1712023;83;20989;-76
2021/10/23 01:30:23;;;;;;;12.53;5.05;;;;;;;8.46;56.05;99750.73;1721495;83;21068;-76
2021/10/23 01:32:51;;;;;;;9.45;4.30;;;;;;;8.40;57.73;99744.41;1723096;80;21002;-78
2021/10/23 01:35:18;;;;;;;14.50;5.30;;;;;;;8.34;57.96;99743.27;1723104;80;21141;-76
2021/10/23 01:37:47;;;;;;;12.25;5.65;;;;;;;8.29;57.02;99755.69;1723215;81;21177;-74
2021/10/23 01:40:32;;;;;;;12.70;4.67;;;;;;;8.26;55.76;99754.46;1720226;82;21076;-74
2021/10/23 01:42:58;;;;;;;10.90;5.17;;;;;;;8.22;53.78;99752.41;1717648;83;21056;-74
2021/10/23 01:45:25;;;;;;;17.25;5.90;;;;;;;8.15;54.36;99756.16;1717985;83;21081;-75
2021/10/23 01:47:53;;;;;;;13.90;5.33;;;;;;;8.11;53.53;99755.38;1717707;83;21551;-74
2021/10/23 01:50:22;;;;;;;13.53;5.45;;;;;;;8.07;54.24;99748.52;1717086;83;21116;-74
2021/10/23 01:52:50;;;;;;;13.43;5.33;;;;;;;8.01;53.55;99753.98;1717377;83;21108;-77
2021/10/23 01:55:16;;;;;;;12.20;5.50;;;;;;;7.97;53.76;99757.60;1717296;83;21594;-76
2021/10/23 01:57:44;;;;;;;10.60;4.92;;;;;;;7.94;54.63;99752.47;1717519;83;21037;-75
2021/10/23 02:00:12;;;;;;;14.38;4.80;;;;;;;7.92;54.51;99746.41;1710997;83;21523;-75
2021/10/23 02:02:40;;;;;;;10.30;5.20;;;;;;;7.91;55.92;99749.92;1717086;83;21076;-75
2021/10/23 02:05:09;;;;;;;15.95;5.65;;;;;;;7.92;56.48;99746.41;1717688;82;21100;-76
2021/10/23 02:07:35;;;;;;;10.80;4.65;;;;;;;7.89;56.71;99749.11;1702467;82;21085;-73
2021/10/23 02:10:05;;;;;;;11.95;4.97;;;;;;;7.86;58.20;99745.28;1716424;83;21070;-74
2021/10/23 02:12:31;;;;;;;14.83;5.28;;;;;;;7.84;57.87;99747.09;1717920;82;21117;-73
2021/10/23 02:21:51;;;;;;;9.83;4.70;;;;;;;7.69;59.04;99745.83;1773601;79;28138;-73
2021/10/23 02:24:18;;;;;;;9.28;4.53;;;;;;;7.57;57.16;99752.31;1736859;82;21056;-74
2021/10/23 02:26:45;;;;;;;10.13;4.60;;;;;;;7.53;59.35;99745.45;1681908;85;22028;-74
2021/10/23 02:29:12;;;;;;;10.55;4.62;;;;;;;7.49;55.98;99743.81;1688146;84;21136;-74
2021/10/23 02:31:38;;;;;;;12.30;4.45;;;;;;;7.45;55.32;99741.73;1699614;84;21074;-73
2021/10/23 02:34:06;;;;;;;13.98;5.15;;;;;;;7.44;56.33;99747.03;1699172;84;21078;-74
2021/10/23 02:36:33;;;;;;;13.32;5.30;;;;;;;7.41;55.78;99747.99;1698147;84;21053;-74
2021/10/23 02:38:59;;;;;;;11.18;4.22;;;;;;;7.39;56.79;99751.10;1686022;84;21125;-73
2021/10/23 02:41:26;;;;;;;9.90;4.92;;;;;;;7.38;55.96;99748.52;1680425;85;21078;-73
2021/10/23 02:43:53;;;;;;;14.28;5.00;;;;;;;7.34;55.85;99750.39;1701050;84;21116;-72
2021/10/23 02:46:20;;;;;;;11.83;5.00;;;;;;;7.31;55.65;99750.00;1700751;84;21061;-70
2021/10/23 02:48:47;;;;;;;10.88;4.62;;;;;;;7.31;56.34;99762.25;1684274;85;21605;-72
2021/10/23 02:51:13;;;;;;;10.10;4.60;;;;;;;7.29;56.50;99764.05;1682215;85;21484;-73
2021/10/23 02:53:40;;;;;;;14.18;5.15;;;;;;;7.23;56.85;99761.17;1686377;84;21075;-72
2021/10/23 02:56:06;;;;;;;16.90;5.25;;;;;;;7.20;57.28;99760.39;1678918;85;21066;-72
2021/10/23 02:58:33;;;;;;;12.23;4.42;;;;;;;7.16;58.00;99767.50;1694196;84;21081;-72
2021/10/23 03:00:59;;;;;;;13.98;5.60;;;;;;;7.14;58.59;99766.67;1697828;84;21731;-73
2021/10/23 03:03:26;;;;;;;14.10;4.90;;;;;;;7.09;59.75;99769.42;1698078;84;21924;-72
2021/10/23 03:05:52;;;;;;;9.83;4.47;;;;;;;7.07;61.69;99773.00;1698027;84;21084;-73
2021/10/23 03:08:18;;;;;;;11.03;5.10;;;;;;;7.04;61.12;99766.52;1698023;84;21098;-73
2021/10/23 03:10:46;;;;;;;10.60;5.40;;;;;;;6.99;62.89;99774.95;1699663;84;21109;-73
2021/10/23 03:13:14;;;;;;;16.50;5.80;;;;;;;6.97;62.99;99774.14;1692551;84;20995;-73
2021/10/23 03:15:40;;;;;;;13.48;6.60;;;;;;;6.96;63.10;99772.44;1687986;83;22461;-74
2021/10/23 03:18:07;;;;;;;14.07;6.20;;;;;;;6.96;63.86;99771.98;1677856;84;21131;-74
2021/10/23 03:20:34;;;;;;;15.75;5.95;;;;;;;6.92;60.76;99771.22;1688680;84;21097;-72
2021/10/23 03:23:00;;;;;;;14.60;5.92;;;;;;;6.93;60.45;99782.09;1684589;85;22248;-71
2021/10/23 03:25:27;;;;;;;18.02;6.20;;;;;;;6.93;60.41;99775.55;1679656;85;21081;-71
2021/10/23 03:27:53;;;;;;;14.68;6.05;;;;;;;6.92;61.37;99768.61;1683810;85;21339;-71
2021/10/23 03:30:20;;;;;;;19.48;6.62;;;;;;;6.90;60.58;99767.78;1723978;82;21074;-70
2021/10/23 03:32:47;;;;;;;14.93;6.30;;;;;;;6.92;60.06;99760.75;1725307;82;21116;-72
2021/10/23 03:35:13;;;;;;;16.30;6.60;;;;;;;6.94;61.21;99761.53;1727676;82;21695;-70
2021/10/23 03:37:40;;;;;;;14.50;6.35;;;;;;;6.93;59.71;99763.77;1720225;82;21113;-73
2021/10/23 03:40:08;;;;;;;14.50;6.08;;;;;;;6.93;59.42;99758.98;1713939;82;21016;-74
2021/10/23 03:42:35;;;;;;;14.98;6.00;;;;;;;6.98;59.60;99761.47;1724106;82;21529;-76
2021/10/23 03:45:02;;;;;;;14.28;5.62;;;;;;;7.01;60.12;99754.83;1721605;82;21097;-72
2021/10/23 03:47:31;;;;;;;21.02;6.75;;;;;;;7.02;61.09;99754.80;1724847;82;21613;-72
2021/10/23 03:49:58;;;;;;;12.35;5.80;;;;;;;7.03;61.08;99751.72;1729866;82;21739;-72
2021/10/23 03:52:25;;;;;;;14.23;5.78;;;;;;;7.05;61.26;99753.84;1715221;82;21713;-73
2021/10/23 03:54:51;;;;;;;12.03;5.62;;;;;;;7.04;63.36;99755.62;1718756;82;21065;-73
2021/10/23 03:57:18;;;;;;;14.03;6.08;;;;;;;7.06;60.48;99755.55;1726992;82;21589;-70
2021/10/23 03:59:45;;;;;;;11.68;5.87;;;;;;;7.05;61.66;99760.39;1724573;82;21636;-69
2021/10/23 04:02:11;;;;;;;10.75;5.90;;;;;;;7.04;61.61;99763.89;1720933;82;21099;-71
2021/10/23 04:04:39;;;;;;;18.95;5.80;;;;;;;7.06;63.52;99763.41;1721310;82;21589;-70
2021/10/23 04:07:06;;;;;;;14.85;5.47;;;;;;;7.07;60.68;99765.14;1727274;82;21075;-70
2021/10/23 04:09:33;;;;;;;17.32;6.10;;;;;;;7.05;60.53;99761.70;1720098;82;21113;-69
2021/10/23 04:12:03;;;;;;;13.17;4.97;;;;;;;7.03;59.56;99752.58;1724025;82;21074;-67
2021/10/23 04:14:30;;;;;;;14.90;5.55;;;;;;;7.06;60.19;99756.86;1729218;82;21106;-72
2021/10/23 04:16:58;;;;;;;14.70;5.55;;;;;;;7.05;58.01;99763.02;1720470;82;21059;-70
2021/10/23 04:19:25;;;;;;;15.32;5.85;;;;;;;7.09;59.72;99781.67;1721431;82;21218;-70
2021/10/23 04:21:53;;;;;;;17.00;5.87;;;;;;;7.09;58.26;99776.44;1712661;82;21087;-71
2021/10/23 04:24:21;;;;;;;11.85;5.33;;;;;;;7.09;58.06;99778.59;1725926;82;21088;-71
2021/10/23 04:26:52;;;;;;;11.28;6.15;;;;;;;7.08;57.85;99776.01;1716689;82;21082;-70
2021/10/23 04:29:21;;;;;;;11.35;5.03;;;;;;;7.08;57.66;99779.48;1720309;82;21827;-70
2021/10/23 04:31:49;;;;;;;10.98;4.58;;;;;;;7.11;58.37;99781.18;1713281;82;21679;-70
2021/10/23 04:34:16;;;;;;;13.53;5.55;;;;;;;7.11;59.02;99779.87;1714658;82;21144;-71
2021/10/23 04:36:43;;;;;;;12.10;5.28;;;;;;;7.09;59.35;99777.28;1713943;82;21050;-71
2021/10/23 04:39:09;;;;;;;11.57;4.90;;;;;;;7.06;60.42;99772.57;1731322;82;21093;-71
2021/10/23 04:41:36;;;;;;;9.90;4.60;;;;;;;7.05;60.62;99771.72;1725393;82;21111;-71
2021/10/23 04:44:04;;;;;;;14.43;5.25;;;;;;;7.07;61.46;99773.00;1659339;85;21148;-71
2021/10/23 04:46:32;;;;;;;8.20;4.20;;;;;;;7.07;61.82;99775.61;1665796;85;21109;-70
2021/10/23 04:48:59;;;;;;;15.63;5.28;;;;;;;7.09;61.44;99786.91;1722410;82;21031;-71
2021/10/23 04:51:26;;;;;;;13.88;5.62;;;;;;;7.09;61.79;99794.30;1714920;81;21704;-72
2021/10/23 04:53:52;;;;;;;10.98;4.95;;;;;;;7.10;60.17;99796.01;1721081;82;21105;-71
2021/10/23 04:56:19;;;;;;;18.37;6.10;;;;;;;7.10;58.89;99809.10;1723313;82;21043;-71
2021/10/23 04:58:47;;;;;;;17.35;6.08;;;;;;;7.10;58.13;99809.10;1715206;82;20963;-71
2021/10/23 05:01:14;;;;;;;20.82;5.90;;;;;;;7.13;56.76;99820.82;1723196;81;21136;-72
2021/10/23 05:03:42;;;;;;;16.45;5.80;;;;;;;7.15;56.43;99814.20;1724366;82;21062;-70
2021/10/23 05:06:08;;;;;;;13.08;5.45;;;;;;;7.18;56.48;99812.84;1653071;85;21142;-71
2021/10/23 05:08:35;;;;;;;18.27;5.80;;;;;;;7.20;56.09;99820.20;1668356;85;21348;-70
2021/10/23 05:11:01;;;;;;;14.90;5.60;;;;;;;7.24;56.48;99827.05;1665911;85;21624;-69
2021/10/23 05:13:28;;;;;;;21.27;8.83;;;;;;;7.28;56.81;99831.30;1666571;85;21105;-72
2021/10/23 05:15:55;;;;;;;13.32;5.40;;;;;;;7.30;56.40;99819.02;1666241;86;21062;-71
2021/10/23 05:18:24;;;;;;;13.05;4.70;;;;;;;7.35;56.91;99826.30;1667147;85;21090;-73
2021/10/23 05:21:52;;;;;;;16.73;5.65;;;;;;;7.47;56.66;99822.91;1787407;79;28335;-70
2021/10/23 05:24:18;;;;;;;16.32;5.58;;;;;;;7.49;58.63;99826.35;1746226;81;21055;-71
2021/10/23 05:26:49;;;;;;;14.18;5.25;;;;;;;7.53;57.74;99825.36;1727816;81;21209;-72
2021/10/23 05:29:16;;;;;;;11.28;4.42;;;;;;;7.58;55.96;99826.08;1720404;82;21096;-71
2021/10/23 05:31:42;;;;;;;13.80;5.42;;;;;;;7.64;55.92;99820.67;1729435;82;21015;-72
2021/10/23 05:34:10;;;;;;;12.53;4.80;;;;;;;7.67;55.00;99825.81;1734194;82;21029;-72
2021/10/23 05:36:36;;;;;;;14.63;5.35;;;;;;;7.74;55.02;99840.44;1733478;82;22225;-71
2021/10/23 05:39:06;;;;;;;12.23;4.78;;;;;;;8.16;53.86;99833.45;1701820;83;21152;-72
2021/10/23 05:41:33;;;;;;;12.98;5.08;;;;;;;8.79;52.51;99834.52;1687660;84;21083;-71
2021/10/23 05:43:59;;;;;;;12.10;5.22;;;;;;;9.47;50.63;99841.29;1689942;84;21079;-71
2021/10/23 05:46:26;;;;;;;12.37;5.15;;;;;;;10.06;50.16;99835.52;1667792;85;21106;-73
2021/10/23 05:48:53;;;;;;;12.58;4.60;;;;;;;10.68;49.23;99841.34;1698273;83;21818;-72
2021/10/23 05:51:19;;;;;;;11.48;4.62;;;;;;;11.18;48.14;99838.78;1694881;78;21128;-74
2021/10/23 05:53:45;;;;;;;12.20;4.90;;;;;;;11.50;46.40;99841.30;1704890;82;21580;-75
2021/10/23 05:56:12;;;;;;;11.03;4.40;;;;;;;11.85;45.89;99844.08;1715341;82;21094;-75
2021/10/23 05:58:39;;;;;;;11.78;4.28;;;;;;;12.20;45.54;99844.22;1692596;82;21112;-75
2021/10/23 06:01:08;;;;;;;9.43;4.40;;;;;;;12.57;43.36;99849.02;1687693;83;21594;-76
2021/10/23 06:03:36;;;;;;;11.15;4.35;;;;;;;13.01;43.69;99845.43;1680550;84;21443;-74
2021/10/23 06:06:04;;;;;;;10.38;4.67;;;;;;;13.41;42.37;99845.16;1678395;84;21564;-74
2021/10/23 06:08:31;;;;;;;12.37;5.40;;;;;;;13.67;39.02;99854.36;1687390;84;21122;-74
2021/10/23 06:10:58;;;;;;;12.47;4.62;;;;;;;13.84;39.17;99845.48;1689001;83;21194;-76
2021/10/23 06:13:24;;;;;;;10.03;4.67;;;;;;;14.09;38.00;99848.11;1691210;84;21147;-72
2021/10/23 06:15:51;;;;;;;10.40;4.22;;;;;;;14.39;37.57;99852.98;1683944;83;21968;-73
2021/10/23 06:18:20;;;;;;;8.65;4.10;;;;;;;14.67;36.70;99858.89;1688033;84;21079;-74
2021/10/23 06:20:48;;;;;;;15.88;5.03;;;;;;;14.83;36.16;99852.23;1686376;83;21097;-72
2021/10/23 06:23:15;;;;;;;15.75;4.62;;;;;;;14.93;35.87;99843.72;1684326;83;21324;-74
2021/10/23 06:25:42;;;;;;;11.68;4.60;;;;;;;15.06;35.82;99850.01;1690707;84;21106;-74
2021/10/23 06:28:10;;;;;;;11.93;5.00;;;;;;;15.20;35.60;99855.33;1688163;84;21044;-74
2021/10/23 06:30:37;;;;;;;10.38;4.45;;;;;;;15.59;35.55;99851.18;1684429;84;21043;-75
2021/10/23 06:33:04;;;;;;;10.20;4.40;;;;;;;15.79;35.73;99848.64;1681339;84;21053;-74
2021/10/23 06:35:31;;;;;;;10.32;4.30;;;;;;;15.93;34.16;99853.08;1670842;84;21233;-73
2021/10/23 06:37:57;;;;;;;13.50;4.42;;;;;;;16.03;35.74;99858.16;1688687;84;21086;-73
2021/10/23 06:40:24;;;;;;;10.93;4.20;;;;;;;16.31;34.76;99852.40;1687652;84;21163;-74
2021/10/23 06:42:51;;;;;;;11.28;4.33;;;;;;;16.62;33.08;99857.89;1684342;83;21098;-74
2021/10/23 06:45:18;;;;;;;9.18;3.95;;;;;;;16.49;35.53;99863.16;1684031;84;21095;-75
2021/10/23 06:47:46;;;;;;;10.13;4.67;;;;;;;16.79;34.95;99855.45;1682879;84;21162;-75
2021/10/23 06:50:15;;;;;;;11.53;4.20;;;;;;;17.07;34.71;99862.90;1682553;83;21159;-73
2021/10/23 06:52:41;;;;;;;8.13;3.92;;;;;;;17.35;33.95;99849.41;1663716;84;21784;-74
2021/10/23 06:55:08;;;;;;;9.40;3.62;;;;;;;17.61;31.62;99857.38;1673516;84;21207;-74
2021/10/23 06:57:35;;;;;;;13.10;4.60;;;;;;;17.64;31.46;99866.47;1670714;84;21537;-74
2021/10/23 07:00:01;;;;;;;12.25;3.95;;;;;;;17.78;30.59;99873.02;1673258;84;21160;-75
2021/10/23 07:02:31;;;;;;;11.08;3.75;;;;;;;18.00;31.29;99867.52;1659745;84;21130;-76
2021/10/23 07:04:59;;;;;;;14.10;4.28;;;;;;;18.14;30.17;99859.36;1626929;85;21153;-76
2021/10/23 07:07:25;;;;;;;12.07;3.80;;;;;;;17.78;30.31;99862.38;1676739;85;21831;-74
2021/10/23 07:09:52;;;;;;;9.58;3.90;;;;;;;17.93;30.62;99872.92;1674261;83;21544;-74
2021/10/23 07:12:20;;;;;;;11.63;4.33;;;;;;;18.28;30.42;99870.84;1673950;83;21112;-75
2021/10/23 07:14:47;;;;;;;12.68;4.95;;;;;;;18.66;29.39;99866.19;1672226;85;21168;-75
2021/10/23 07:17:15;;;;;;;10.95;4.20;;;;;;;19.01;29.44;99872.03;1670656;85;21672;-74
2021/10/23 07:19:42;;;;;;;11.80;3.90;;;;;;;19.43;28.65;99872.35;1672831;85;21125;-74
2021/10/23 07:22:08;;;;;;;12.43;3.80;;;;;;;19.89;29.11;99867.41;1674762;84;21524;-74
2021/10/23 07:24:35;;;;;;;12.30;4.55;;;;;;;20.40;27.58;99879.35;1676403;85;21084;-75
2021/10/23 07:27:01;;;;;;;8.85;4.15;;;;;;;20.38;27.84;99877.78;1673129;85;21097;-74
2021/10/23 07:29:28;;;;;;;8.25;3.72;;;;;;;20.27;28.00;99878.19;1675622;83;21885;-75
2021/10/23 07:31:56;;;;;;;10.75;3.98;;;;;;;19.89;27.54;99883.45;1675972;84;21069;-76
2021/10/23 07:34:24;;;;;;;10.03;3.65;;;;;;;19.88;28.64;99884.43;1671442;85;21054;-75
2021/10/23 07:36:51;;;;;;;11.63;4.78;;;;;;;19.73;29.57;99881.63;1673015;85;21122;-76
2021/10/23 07:39:19;;;;;;;11.40;4.22;;;;;;;19.44;28.27;99879.41;1676270;84;21120;-76
2021/10/23 07:41:47;;;;;;;9.73;4.00;;;;;;;19.20;28.35;99888.81;1678841;85;22034;-75
2021/10/23 07:44:14;;;;;;;11.55;4.00;;;;;;;19.10;28.52;99885.66;1674327;85;21585;-74
2021/10/23 07:46:40;;;;;;;10.25;3.95;;;;;;;19.40;28.28;99891.79;1673524;85;21125;-76
2021/10/23 07:49:08;;;;;;;12.78;4.25;;;;;;;19.64;27.73;99890.34;1675691;85;21120;-75
2021/10/23 07:51:35;;;;;;;8.25;3.45;;;;;;;19.68;27.79;99890.02;1673644;83;21054;-73
2021/10/23 07:54:08;;;;;;;10.70;4.47;;;;;;;19.69;27.92;99888.19;1674592;84;22094;-75
2021/10/23 07:56:38;;;;;;;11.40;3.45;;;;;;;19.91;28.36;99888.19;1675340;84;21069;-74
2021/10/23 07:59:05;;;;;;;7.75;4.05;;;;;;;20.43;27.16;99898.30;1674670;85;21088;-74
2021/10/23 08:01:32;;;;;;;9.73;3.98;;;;;;;20.71;26.60;99897.77;1675185;84;21152;-76
2021/10/23 08:04:00;;;;;;;10.13;3.67;;;;;;;20.48;26.74;99898.80;1672945;84;21648;-76
2021/10/23 08:06:28;;;;;;;10.08;3.92;;;;;;;20.29;27.08;99915.47;1668109;84;22466;-75
2021/10/23 08:08:54;;;;;;;36.25;5.65;;;;;;;20.24;28.04;99905.15;1673759;85;21156;-75
2021/10/23 08:11:22;;;;;;;9.43;3.55;;;;;;;20.33;27.85;99903.06;1673853;84;21121;-75
2021/10/23 08:13:50;;;;;;;16.80;3.50;;;;;;;20.37;28.68;99904.17;1674124;84;21105;-75
2021/10/23 08:16:18;;;;;;;9.48;3.60;;;;;;;20.29;27.88;99906.11;1674468;84;21102;-75
2021/10/23 08:18:45;;;;;;;8.75;3.37;;;;;;;20.15;27.82;99907.23;1673561;85;21161;-75
2021/10/23 08:21:11;;;;;;;9.60;3.75;;;;;;;20.30;29.00;99915.36;1675327;84;21089;-76
2021/10/23 08:23:38;;;;;;;10.00;3.12;;;;;;;20.76;27.48;99921.97;1669673;84;21089;-75
2021/10/23 08:26:04;;;;;;;7.30;3.27;;;;;;;21.18;26.40;99923.36;1668557;84;21121;-75
2021/10/23 08:28:33;;;;;;;6.70;2.90;;;;;;;21.44;25.25;99931.87;1674519;85;21596;-74
2021/10/23 08:31:00;;;;;;;15.72;3.67;;;;;;;21.49;25.66;99938.56;1674937;84;21069;-75
2021/10/23 08:33:26;;;;;;;7.17;3.15;;;;;;;21.58;25.33;99952.50;1675125;85;21592;-75
2021/10/23 08:35:55;;;;;;;8.75;2.95;;;;;;;21.46;24.88;99952.19;1673456;85;21152;-75
2021/10/23 08:38:23;;;;;;;9.78;3.12;;;;;;;21.00;24.94;99966.75;1673114;85;21050;-75
2021/10/23 08:40:53;;;;;;;9.40;3.60;;;;;;;21.13;25.38;99959.41;1673651;85;21138;-76
2021/10/23 08:43:20;;;;;;;9.00;3.58;;;;;;;21.33;25.12;99952.88;1667219;85;21500;-76
2021/10/23 08:45:48;;;;;;;11.12;3.35;;;;;;;21.38;25.28;99956.00;1674221;85;22242;-75
2021/10/23 08:48:15;;;;;;;12.90;3.62;;;;;;;21.28;25.44;99955.06;1674878;85;21089;-75
2021/10/23 08:50:41;;;;;;;10.00;3.77;;;;;;;21.17;25.66;99966.70;1673707;84;21069;-74
2021/10/23 08:53:08;;;;;;;9.00;3.75;;;;;;;20.41;26.59;99964.47;1680020;84;21628;-74
2021/10/23 08:55:36;;;;;;;10.13;3.60;;;;;;;19.99;26.91;99972.25;1689701;83;21096;-76
2021/10/23 08:58:04;;;;;;;10.23;3.62;;;;;;;19.75;28.08;99967.86;1678498;84;21078;-75
2021/10/23 09:00:31;;;;;;;9.88;4.00;;;;;;;19.62;27.42;99964.41;1682770;84;21062;-76
2021/10/23 09:02:59;;;;;;;10.20;4.17;;;;;;;18.84;29.16;99973.83;1684612;84;22400;-76
2021/10/23 09:05:27;;;;;;;11.50;3.95;;;;;;;18.93;28.61;99975.81;1684961;83;21118;-75
2021/10/23 09:07:54;;;;;;;11.63;4.00;;;;;;;19.28;28.41;99988.37;1688451;84;21546;-77
2021/10/23 09:10:31;;;;;;;9.73;4.20;;;;;;;19.45;27.80;99993.26;1687775;83;21117;-76
2021/10/23 09:13:05;;;;;;;16.67;4.55;;;;;;;19.38;27.46;99993.86;1682104;84;21142;-75
2021/10/23 09:15:38;;;;;;;8.90;4.20;;;;;;;19.58;28.57;99992.31;1677297;84;21061;-76
2021/10/23 09:18:05;;;;;;;9.95;4.50;;;;;;;20.14;27.68;99987.58;1690377;83;21572;-75
2021/10/23 09:20:41;;;;;;;8.13;3.95;;;;;;;20.65;26.02;99997.27;1687045;84;21074;-75
2021/10/23 09:23:19;;;;;;;10.93;3.90;;;;;;;20.66;25.30;99985.61;1678529;84;21066;-76
2021/10/23 09:25:46;;;;;;;12.28;4.15;;;;;;;20.72;25.73;99988.26;1687525;84;21561;-75
2021/10/23 09:28:16;;;;;;;9.38;4.45;;;;;;;21.04;26.94;99989.62;1683837;83;21123;-75
2021/10/23 09:30:47;;;;;;;;;;;;;;;21.10;25.06;99975.73;1693528;84;21097;-75
2021/10/23 09:33:18;;;;;;;11.55;4.10;;;;;;;21.23;25.70;99980.05;1691161;84;21531;-74
2021/10/23 09:35:50;;;;;;;7.05;3.77;;;;;;;21.21;26.17;99984.69;1668195;84;21008;-75
2021/10/23 09:38:32;;;;;;;8.33;3.10;;;;;;;21.23;25.48;99990.77;1674615;84;21710;-76
2021/10/23 09:41:16;;;;;;;14.20;3.62;;;;;;;20.24;26.64;99972.00;1683421;84;21028;-77
2021/10/23 09:43:47;;;;;;;10.13;3.70;;;;;;;19.46;26.43;99991.44;1689848;84;21099;-75
2021/10/23 09:46:21;;;;;;;7.15;3.40;;;;;;;18.72;27.44;99993.39;1690803;84;21166;-76
2021/10/23 09:48:52;;;;;;;9.70;3.42;;;;;;;18.37;28.05;99997.64;1689609;84;22114;-75
2021/10/23 09:51:24;;;;;;;7.65;3.83;;;;;;;18.36;28.39;99998.62;1689382;84;21557;-76
2021/10/23 09:53:58;;;;;;;12.28;3.30;;;;;;;18.50;28.53;100002.95;1683487;83;21097;-75
2021/10/23 09:56:29;;;;;;;7.35;3.05;;;;;;;17.89;29.33;100002.80;1690611;84;21108;-74
2021/10/23 09:59:03;;;;;;;10.58;3.55;;;;;;;17.37;32.67;100007.20;1681440;83;21478;-75
2021/10/23 10:01:31;;;;;;;6.75;3.60;;;;;;;16.78;30.91;100012.81;1688041;84;21052;-76
2021/10/23 10:04:05;;;;;;;7.67;3.40;;;;;;;16.35;32.33;100019.52;1688504;83;21162;-75
2021/10/23 10:06:33;;;;;;;8.23;3.50;;;;;;;15.94;32.75;100015.45;1690863;83;21559;-74
2021/10/23 10:09:02;;;;;;;7.30;3.40;;;;;;;15.62;32.75;100023.55;1697036;84;21429;-75
2021/10/23 10:11:35;;;;;;;7.08;3.30;;;;;;;15.38;33.52;100026.31;1680936;84;21104;-77
2021/10/23 10:14:09;;;;;;;9.40;3.70;;;;;;;15.21;34.08;100026.83;1686105;84;21067;-75
2021/10/23 10:16:36;;;;;;;7.90;3.55;;;;;;;14.97;33.94;100028.22;1690713;83;21062;-76
2021/10/23 10:19:05;;;;;;;7.45;3.50;;;;;;;14.56;34.61;100022.99;1688416;84;21057;-76
2021/10/23 10:21:35;;;;;;;10.65;3.42;;;;;;;14.26;35.42;100013.53;1684633;84;21058;-77
2021/10/23 10:24:28;;;;;;;8.73;3.75;;;;;;;14.16;35.93;100021.61;1683152;84;21063;-75
2021/10/23 10:27:11;;;;;;;8.15;4.10;;;;;;;14.21;37.91;100028.83;1686049;83;21034;-76
2021/10/23 10:29:59;;;;;;;9.48;4.28;;;;;;;14.18;37.63;100017.09;1687623;84;21577;-76
2021/10/23 10:32:33;;;;;;;10.30;4.35;;;;;;;14.09;36.97;100016.25;1682944;84;21105;-75
2021/10/23 10:35:17;;;;;;;11.70;4.35;;;;;;;14.61;35.20;100024.91;1678995;84;21105;-74
2021/10/23 10:40:56;;;;;;;9.68;5.00;;;;;;;16.48;32.91;100018.28;1678448;84;21039;-77
2021/10/23 10:43:15;;;;;;;14.90;4.67;;;;;;;17.36;34.44;100018.78;1674467;84;21118;-76
2021/10/23 10:45:47;;;;;;;17.98;4.30;;;;;;;17.73;31.60;100025.61;1683510;84;21069;-76
2021/10/23 10:48:23;;;;;;;8.35;3.85;;;;;;;17.91;31.06;100024.87;1691792;83;21680;-75
2021/10/23 10:51:12;;;;;;;10.10;3.95;;;;;;;17.78;31.30;100031.50;1690419;84;21122;-76
2021/10/23 10:53:45;;;;;;;10.75;4.00;;;;;;;17.88;30.48;100038.89;1672012;84;21097;-75
2021/10/23 10:56:18;;;;;;;8.68;4.12;;;;;;;18.07;30.02;100043.30;1656025;85;21596;-75
2021/10/23 10:58:58;;;;;;;6.12;3.85;;;;;;;18.33;29.91;100035.30;1667024;85;21157;-74
2021/10/23 11:01:33;;;;;;;10.45;3.80;;;;;;;18.74;29.29;100038.98;1664791;85;21109;-75
2021/10/23 11:04:10;;;;;;;6.67;3.25;;;;;;;18.92;29.09;100038.66;1668297;84;21144;-74
2021/10/23 11:06:50;;;;;;;7.70;3.42;;;;;;;18.54;30.50;100031.57;1668222;84;21172;-73
2021/10/23 11:09:30;;;;;;;6.80;3.52;;;;;;;18.54;28.60;100043.57;1667516;85;21070;-74
2021/10/23 11:12:02;;;;;;;6.20;3.33;;;;;;;18.24;27.57;100052.33;1668517;85;21149;-75
2021/10/23 11:14:36;;;;;;;13.55;3.55;;;;;;;17.64;27.81;100054.20;1667086;84;21576;-75
2021/10/23 11:17:15;;;;;;;7.03;3.17;;;;;;;17.04;28.82;100071.95;1664706;85;21070;-74
2021/10/23 11:19:54;;;;;;;11.28;3.08;;;;;;;16.38;29.22;100063.68;1668335;84;21127;-75
2021/10/23 11:22:33;;;;;;;5.40;3.17;;;;;;;15.72;29.69;100068.53;1652906;85;21136;-74
2021/10/23 11:25:07;;;;;;;6.00;3.13;;;;;;;15.27;31.60;100068.89;1667699;84;21577;-73
2021/10/23 11:27:46;;;;;;;10.32;3.70;;;;;;;14.86;34.03;100061.52;1668476;85;22359;-74
2021/10/23 11:30:21;;;;;;;10.95;3.62;;;;;;;14.66;34.88;100065.73;1668465;85;21189;-73
2021/10/23 11:32:57;;;;;;;8.13;3.55;;;;;;;14.90;35.41;100070.13;1668763;85;21441;-75
2021/10/23 11:35:54;;;;;;;8.28;4.05;;;;;;;15.45;33.70;100068.79;1669941;85;21125;-73
2021/10/23 11:38:26;;;;;;;8.80;4.62;;;;;;;15.91;31.07;100078.05;1667092;85;21078;-75
2021/10/23 11:41:00;;;;;;;10.45;3.55;;;;;;;16.37;29.79;100065.94;1669688;85;21138;-74
2021/10/23 11:43:29;;;;;;;8.38;4.10;;;;;;;16.43;29.30;100074.87;1668918;85;21153;-75
2021/10/23 11:45:57;;;;;;;9.38;3.10;;;;;;;16.19;31.08;100079.88;1669550;84;21094;-75
2021/10/23 11:48:25;;;;;;;9.05;2.87;;;;;;;15.76;30.34;100082.94;1668059;85;21075;-75